sensor_id;sensor_type;location;lat;lon;timestamp;temperature;humidity
18906;DHT22;9585;51.018;4.282;2023-01-20T00:01:59;0.20;99.90
18906;DHT22;9585;51.018;4.282;2023-01-20T00:04:26;0.20;99.90
18906;DHT22;9585;51.018;4.282;2023-01-20T00:06:54;0.30;99.90
18906;DHT22;9585;51.018;4.282;2023-01-20T00:09:21;0.30;99.90
18906;DHT22;9585;51.018;4.282;2023-01-20T00:11:50;0.20;99.90
18906;DHT22;9585;51.018;4.282;2023-01-20T00:14:17;0.30;99.90
18906;DHT22;9585;51.018;4.282;2023-01-20T00:16:46;0.30;99.90
18906;DHT22;9585;51.018;4.282;2023-01-20T00:19:13;0.40;99.90
18906;DHT22;9585;51.018;4.282;2023-01-20T00:21:41;0.40;99.90
18906;DHT22;9585;51.018;4.282;2023-01-20T00:24:08;0.30;99.90
18906;DHT22;9585;51.018;4.282;2023-01-20T00:26:35;0.40;99.90
18906;DHT22;9585;51.018;4.282;2023-01-20T00:29:19;0.40;99.90
18906;DHT22;9585;51.018;4.282;2023-01-20T00:31:47;0.40;99.90
18906;DHT22;9585;51.018;4.282;2023-01-20T00:34:14;0.40;99.90
18906;DHT22;9585;51.018;4.282;2023-01-20T00:36:42;0.40;99.90
18906;DHT22;9585;51.018;4.282;2023-01-20T00:39:09;0.30;99.90
18906;DHT22;9585;51.018;4.282;2023-01-20T00:41:36;0.30;99.90
18906;DHT22;9585;51.018;4.282;2023-01-20T00:44:04;0.30;99.90
18906;DHT22;9585;51.018;4.282;2023-01-20T00:46:33;0.30;99.90
18906;DHT22;9585;51.018;4.282;2023-01-20T00:49:02;0.20;99.90
18906;DHT22;9585;51.018;4.282;2023-01-20T00:51:30;0.20;99.90
18906;DHT22;9585;51.018;4.282;2023-01-20T00:53:57;0.20;99.90
18906;DHT22;9585;51.018;4.282;2023-01-20T00:56:25;0.20;99.90
18906;DHT22;9585;51.018;4.282;2023-01-20T00:58:52;0.20;99.90
18906;DHT22;9585;51.018;4.282;2023-01-20T01:01:21;0.20;99.90
18906;DHT22;9585;51.018;4.282;2023-01-20T01:03:51;0.10;99.90
18906;DHT22;9585;51.018;4.282;2023-01-20T01:06:19;0.20;99.90
18906;DHT22;9585;51.018;4.282;2023-01-20T01:08:48;0.10;99.90
18906;DHT22;9585;51.018;4.282;2023-01-20T01:11:17;0.10;99.90
18906;DHT22;9585;51.018;4.282;2023-01-20T01:13:44;0.10;99.90
18906;DHT22;9585;51.018;4.282;2023-01-20T01:16:14;0.20;99.90
18906;DHT22;9585;51.018;4.282;2023-01-20T01:18:42;0.10;99.90
18906;DHT22;9585;51.018;4.282;2023-01-20T01:21:13;0.10;99.90
18906;DHT22;9585;51.018;4.282;2023-01-20T01:23:42;0.20;99.90
18906;DHT22;9585;51.018;4.282;2023-01-20T01:26:10;0.20;99.90
18906;DHT22;9585;51.018;4.282;2023-01-20T01:28:38;0.20;99.90
18906;DHT22;9585;51.018;4.282;2023-01-20T01:31:07;0.20;99.90
18906;DHT22;9585;51.018;4.282;2023-01-20T01:33:37;0.20;99.90
18906;DHT22;9585;51.018;4.282;2023-01-20T01:36:05;0.20;99.90
18906;DHT22;9585;51.018;4.282;2023-01-20T01:38:35;0.20;99.90
18906;DHT22;9585;51.018;4.282;2023-01-20T01:41:03;0.20;99.90
18906;DHT22;9585;51.018;4.282;2023-01-20T01:43:32;0.20;99.90
18906;DHT22;9585;51.018;4.282;2023-01-20T01:46:03;0.20;99.90
18906;DHT22;9585;51.018;4.282;2023-01-20T01:48:35;0.20;99.90
18906;DHT22;9585;51.018;4.282;2023-01-20T01:51:07;0.20;99.90
18906;DHT22;9585;51.018;4.282;2023-01-20T01:53:41;0.10;99.90
18906;DHT22;9585;51.018;4.282;2023-01-20T01:56:11;0.10;99.90
18906;DHT22;9585;51.018;4.282;2023-01-20T01:58:47;0.10;99.90
18906;DHT22;9585;51.018;4.282;2023-01-20T02:01:15;0.00;99.90
18906;DHT22;9585;51.018;4.282;2023-01-20T02:03:48;0.10;99.90
18906;DHT22;9585;51.018;4.282;2023-01-20T02:06:21;0.10;99.90
18906;DHT22;9585;51.018;4.282;2023-01-20T02:08:52;0.00;99.90
18906;DHT22;9585;51.018;4.282;2023-01-20T02:11:23;-0.10;99.90
18906;DHT22;9585;51.018;4.282;2023-01-20T02:13:51;-0.10;99.90
18906;DHT22;9585;51.018;4.282;2023-01-20T02:16:29;-0.10;99.90
18906;DHT22;9585;51.018;4.282;2023-01-20T02:19:24;0.00;99.90
18906;DHT22;9585;51.018;4.282;2023-01-20T02:22:16;-0.10;99.90
18906;DHT22;9585;51.018;4.282;2023-01-20T02:28:21;-0.10;99.90
18906;DHT22;9585;51.018;4.282;2023-01-20T02:33:55;-0.10;99.90
18906;DHT22;9585;51.018;4.282;2023-01-20T02:36:29;-0.10;99.90
18906;DHT22;9585;51.018;4.282;2023-01-20T02:39:02;-0.10;99.90
18906;DHT22;9585;51.018;4.282;2023-01-20T02:41:38;-0.10;99.90
18906;DHT22;9585;51.018;4.282;2023-01-20T02:44:15;-0.10;99.90
18906;DHT22;9585;51.018;4.282;2023-01-20T02:46:49;-0.10;99.90
18906;DHT22;9585;51.018;4.282;2023-01-20T02:49:23;-0.10;99.90
18906;DHT22;9585;51.018;4.282;2023-01-20T02:51:55;-0.10;99.90
18906;DHT22;9585;51.018;4.282;2023-01-20T02:54:27;-0.20;99.90
18906;DHT22;9585;51.018;4.282;2023-01-20T02:56:59;-0.20;99.90
18906;DHT22;9585;51.018;4.282;2023-01-20T02:59:31;-0.20;99.90
18906;DHT22;9585;51.018;4.282;2023-01-20T03:02:01;-0.20;99.90
18906;DHT22;9585;51.018;4.282;2023-01-20T03:04:36;-0.20;99.90
18906;DHT22;9585;51.018;4.282;2023-01-20T03:07:05;-0.20;99.90
18906;DHT22;9585;51.018;4.282;2023-01-20T03:09:36;-0.30;99.90
18906;DHT22;9585;51.018;4.282;2023-01-20T03:12:10;-0.40;99.90
18906;DHT22;9585;51.018;4.282;2023-01-20T03:14:40;-0.50;99.90
18906;DHT22;9585;51.018;4.282;2023-01-20T03:17:08;-0.50;99.90
18906;DHT22;9585;51.018;4.282;2023-01-20T03:19:38;-0.60;99.90
18906;DHT22;9585;51.018;4.282;2023-01-20T03:22:05;-0.60;99.90
18906;DHT22;9585;51.018;4.282;2023-01-20T03:24:34;-0.70;99.90
18906;DHT22;9585;51.018;4.282;2023-01-20T03:27:04;-0.70;99.90
18906;DHT22;9585;51.018;4.282;2023-01-20T03:29:31;-0.70;99.90
18906;DHT22;9585;51.018;4.282;2023-01-20T03:32:00;-0.70;99.90
18906;DHT22;9585;51.018;4.282;2023-01-20T03:34:30;-0.70;99.90
18906;DHT22;9585;51.018;4.282;2023-01-20T03:37:00;-0.70;99.90
18906;DHT22;9585;51.018;4.282;2023-01-20T03:39:32;-0.70;99.90
18906;DHT22;9585;51.018;4.282;2023-01-20T03:42:07;-0.80;99.90
18906;DHT22;9585;51.018;4.282;2023-01-20T03:44:52;-0.80;99.90
18906;DHT22;9585;51.018;4.282;2023-01-20T03:47:29;-0.80;99.90
18906;DHT22;9585;51.018;4.282;2023-01-20T03:50:05;-0.80;99.90
18906;DHT22;9585;51.018;4.282;2023-01-20T03:52:40;-0.80;99.90
18906;DHT22;9585;51.018;4.282;2023-01-20T03:55:12;-0.80;99.90
18906;DHT22;9585;51.018;4.282;2023-01-20T03:57:46;-0.70;99.90
18906;DHT22;9585;51.018;4.282;2023-01-20T04:00:16;-0.70;99.90
18906;DHT22;9585;51.018;4.282;2023-01-20T04:02:46;-0.70;99.90
18906;DHT22;9585;51.018;4.282;2023-01-20T04:05:13;-0.70;99.90
18906;DHT22;9585;51.018;4.282;2023-01-20T04:07:44;-0.70;99.90
18906;DHT22;9585;51.018;4.282;2023-01-20T04:10:17;-0.60;99.90
18906;DHT22;9585;51.018;4.282;2023-01-20T04:12:44;-0.60;99.90
18906;DHT22;9585;51.018;4.282;2023-01-20T04:15:12;-0.60;99.90
18906;DHT22;9585;51.018;4.282;2023-01-20T04:17:39;-0.60;99.90
18906;DHT22;9585;51.018;4.282;2023-01-20T04:20:09;-0.50;99.90
18906;DHT22;9585;51.018;4.282;2023-01-20T04:22:44;-0.50;99.90
18906;DHT22;9585;51.018;4.282;2023-01-20T04:25:21;-0.40;99.90
18906;DHT22;9585;51.018;4.282;2023-01-20T04:27:50;-0.40;99.90
18906;DHT22;9585;51.018;4.282;2023-01-20T04:30:18;-0.40;99.90
18906;DHT22;9585;51.018;4.282;2023-01-20T04:32:45;-0.40;99.90
18906;DHT22;9585;51.018;4.282;2023-01-20T04:35:14;-0.40;99.90
18906;DHT22;9585;51.018;4.282;2023-01-20T04:37:42;-0.30;99.90
18906;DHT22;9585;51.018;4.282;2023-01-20T04:40:11;-0.30;99.90
18906;DHT22;9585;51.018;4.282;2023-01-20T04:42:39;-0.30;99.90
18906;DHT22;9585;51.018;4.282;2023-01-20T04:45:08;-0.30;99.90
18906;DHT22;9585;51.018;4.282;2023-01-20T04:47:36;-0.30;99.90
18906;DHT22;9585;51.018;4.282;2023-01-20T04:50:04;-0.30;99.90
18906;DHT22;9585;51.018;4.282;2023-01-20T04:52:32;-0.30;99.90
18906;DHT22;9585;51.018;4.282;2023-01-20T04:55:02;-0.30;99.90
18906;DHT22;9585;51.018;4.282;2023-01-20T04:57:31;-0.30;99.90
18906;DHT22;9585;51.018;4.282;2023-01-20T04:59:59;-0.20;99.90
18906;DHT22;9585;51.018;4.282;2023-01-20T05:02:27;-0.20;99.90
18906;DHT22;9585;51.018;4.282;2023-01-20T05:04:54;-0.20;99.90
18906;DHT22;9585;51.018;4.282;2023-01-20T05:07:22;-0.20;99.90
18906;DHT22;9585;51.018;4.282;2023-01-20T05:09:49;-0.20;99.90
18906;DHT22;9585;51.018;4.282;2023-01-20T05:12:16;-0.20;99.90
18906;DHT22;9585;51.018;4.282;2023-01-20T05:14:45;-0.10;99.90
18906;DHT22;9585;51.018;4.282;2023-01-20T05:17:13;-0.10;99.90
18906;DHT22;9585;51.018;4.282;2023-01-20T05:19:40;-0.10;99.90
18906;DHT22;9585;51.018;4.282;2023-01-20T05:22:08;-0.10;99.90
18906;DHT22;9585;51.018;4.282;2023-01-20T05:24:39;0.00;99.90
18906;DHT22;9585;51.018;4.282;2023-01-20T05:27:06;0.00;99.90
18906;DHT22;9585;51.018;4.282;2023-01-20T05:29:33;0.00;99.90
18906;DHT22;9585;51.018;4.282;2023-01-20T05:32:03;0.00;99.90
18906;DHT22;9585;51.018;4.282;2023-01-20T05:34:30;0.00;99.90
18906;DHT22;9585;51.018;4.282;2023-01-20T05:36:58;0.00;99.90
18906;DHT22;9585;51.018;4.282;2023-01-20T05:39:25;0.00;99.90
18906;DHT22;9585;51.018;4.282;2023-01-20T05:41:52;0.00;99.90
18906;DHT22;9585;51.018;4.282;2023-01-20T05:44:20;0.00;99.90
18906;DHT22;9585;51.018;4.282;2023-01-20T05:46:47;0.10;99.90
18906;DHT22;9585;51.018;4.282;2023-01-20T05:49:16;0.10;99.90
18906;DHT22;9585;51.018;4.282;2023-01-20T05:51:43;0.20;99.90
18906;DHT22;9585;51.018;4.282;2023-01-20T05:54:11;0.20;99.90
18906;DHT22;9585;51.018;4.282;2023-01-20T05:56:38;0.20;99.90
18906;DHT22;9585;51.018;4.282;2023-01-20T05:59:05;0.30;99.90
18906;DHT22;9585;51.018;4.282;2023-01-20T06:01:34;0.20;99.90
18906;DHT22;9585;51.018;4.282;2023-01-20T06:04:02;0.20;99.90
18906;DHT22;9585;51.018;4.282;2023-01-20T06:06:31;0.20;99.90
18906;DHT22;9585;51.018;4.282;2023-01-20T06:08:58;0.20;99.90
18906;DHT22;9585;51.018;4.282;2023-01-20T06:11:26;0.20;99.90
18906;DHT22;9585;51.018;4.282;2023-01-20T06:13:53;0.20;99.90
18906;DHT22;9585;51.018;4.282;2023-01-20T06:16:20;0.20;99.90
18906;DHT22;9585;51.018;4.282;2023-01-20T06:18:50;0.20;99.90
18906;DHT22;9585;51.018;4.282;2023-01-20T06:21:18;0.20;99.90
18906;DHT22;9585;51.018;4.282;2023-01-20T06:23:47;0.20;99.90
18906;DHT22;9585;51.018;4.282;2023-01-20T06:26:14;0.30;99.90
18906;DHT22;9585;51.018;4.282;2023-01-20T06:28:42;0.20;99.90
18906;DHT22;9585;51.018;4.282;2023-01-20T06:31:11;0.20;99.90
18906;DHT22;9585;51.018;4.282;2023-01-20T06:33:39;0.30;99.90
18906;DHT22;9585;51.018;4.282;2023-01-20T06:36:08;0.30;99.90
18906;DHT22;9585;51.018;4.282;2023-01-20T06:38:38;0.20;99.90
18906;DHT22;9585;51.018;4.282;2023-01-20T06:41:13;0.30;99.90
18906;DHT22;9585;51.018;4.282;2023-01-20T06:43:41;0.30;99.90
18906;DHT22;9585;51.018;4.282;2023-01-20T06:46:10;0.20;99.90
18906;DHT22;9585;51.018;4.282;2023-01-20T06:48:40;0.20;99.90
18906;DHT22;9585;51.018;4.282;2023-01-20T06:51:10;0.30;99.90
18906;DHT22;9585;51.018;4.282;2023-01-20T06:53:38;0.30;99.90
18906;DHT22;9585;51.018;4.282;2023-01-20T06:56:09;0.30;99.90
18906;DHT22;9585;51.018;4.282;2023-01-20T06:58:37;0.30;99.90
18906;DHT22;9585;51.018;4.282;2023-01-20T07:01:06;0.30;99.90
18906;DHT22;9585;51.018;4.282;2023-01-20T07:03:34;0.30;99.90
18906;DHT22;9585;51.018;4.282;2023-01-20T07:06:04;0.30;99.90
18906;DHT22;9585;51.018;4.282;2023-01-20T07:08:34;0.30;99.90
18906;DHT22;9585;51.018;4.282;2023-01-20T07:11:01;0.30;99.90
18906;DHT22;9585;51.018;4.282;2023-01-20T07:13:31;0.30;99.90
18906;DHT22;9585;51.018;4.282;2023-01-20T07:15:58;0.30;99.90
18906;DHT22;9585;51.018;4.282;2023-01-20T07:18:26;0.40;99.90
18906;DHT22;9585;51.018;4.282;2023-01-20T07:20:53;0.40;99.90
18906;DHT22;9585;51.018;4.282;2023-01-20T07:23:21;0.30;99.90
18906;DHT22;9585;51.018;4.282;2023-01-20T07:25:56;0.30;99.90
18906;DHT22;9585;51.018;4.282;2023-01-20T07:28:23;0.40;99.90
18906;DHT22;9585;51.018;4.282;2023-01-20T07:30:52;0.40;99.90
18906;DHT22;9585;51.018;4.282;2023-01-20T07:33:20;0.40;99.90
18906;DHT22;9585;51.018;4.282;2023-01-20T07:35:51;0.40;99.90
18906;DHT22;9585;51.018;4.282;2023-01-20T07:38:19;0.40;99.90
18906;DHT22;9585;51.018;4.282;2023-01-20T07:40:46;0.40;99.90
18906;DHT22;9585;51.018;4.282;2023-01-20T07:43:14;0.40;99.90
18906;DHT22;9585;51.018;4.282;2023-01-20T07:45:41;0.40;99.90
18906;DHT22;9585;51.018;4.282;2023-01-20T07:48:10;0.50;99.90
18906;DHT22;9585;51.018;4.282;2023-01-20T07:50:37;0.50;99.90
18906;DHT22;9585;51.018;4.282;2023-01-20T07:53:05;0.50;99.90
18906;DHT22;9585;51.018;4.282;2023-01-20T07:55:32;0.40;99.90
18906;DHT22;9585;51.018;4.282;2023-01-20T07:58:00;0.50;99.90
18906;DHT22;9585;51.018;4.282;2023-01-20T08:00:28;0.50;99.90
18906;DHT22;9585;51.018;4.282;2023-01-20T08:02:55;0.60;99.90
18906;DHT22;9585;51.018;4.282;2023-01-20T08:05:24;0.60;99.90
18906;DHT22;9585;51.018;4.282;2023-01-20T08:07:51;0.60;99.90
18906;DHT22;9585;51.018;4.282;2023-01-20T08:10:19;0.60;99.90
18906;DHT22;9585;51.018;4.282;2023-01-20T08:12:46;0.60;99.90
18906;DHT22;9585;51.018;4.282;2023-01-20T08:15:13;0.70;99.90
18906;DHT22;9585;51.018;4.282;2023-01-20T08:17:41;0.70;99.90
18906;DHT22;9585;51.018;4.282;2023-01-20T08:20:09;0.60;99.90
18906;DHT22;9585;51.018;4.282;2023-01-20T08:22:38;0.70;99.90
18906;DHT22;9585;51.018;4.282;2023-01-20T08:25:06;0.70;99.90
18906;DHT22;9585;51.018;4.282;2023-01-20T08:27:34;0.80;99.90
18906;DHT22;9585;51.018;4.282;2023-01-20T08:30:02;0.90;99.90
18906;DHT22;9585;51.018;4.282;2023-01-20T08:32:29;0.80;99.90
18906;DHT22;9585;51.018;4.282;2023-01-20T08:34:57;0.80;99.90
18906;DHT22;9585;51.018;4.282;2023-01-20T08:37:24;0.80;99.90
18906;DHT22;9585;51.018;4.282;2023-01-20T08:39:53;0.90;99.90
18906;DHT22;9585;51.018;4.282;2023-01-20T08:42:20;0.90;99.90
18906;DHT22;9585;51.018;4.282;2023-01-20T08:44:51;0.80;99.90
18906;DHT22;9585;51.018;4.282;2023-01-20T08:47:18;0.90;99.90
18906;DHT22;9585;51.018;4.282;2023-01-20T08:49:45;0.90;99.90
18906;DHT22;9585;51.018;4.282;2023-01-20T08:52:13;0.90;99.90
18906;DHT22;9585;51.018;4.282;2023-01-20T08:54:40;0.90;99.90
18906;DHT22;9585;51.018;4.282;2023-01-20T08:57:09;0.90;99.90
18906;DHT22;9585;51.018;4.282;2023-01-20T08:59:36;1.00;99.90
18906;DHT22;9585;51.018;4.282;2023-01-20T09:02:04;1.00;99.90
18906;DHT22;9585;51.018;4.282;2023-01-20T09:04:35;0.90;99.90
18906;DHT22;9585;51.018;4.282;2023-01-20T09:07:02;0.80;99.90
18906;DHT22;9585;51.018;4.282;2023-01-20T09:09:30;0.80;99.90
18906;DHT22;9585;51.018;4.282;2023-01-20T09:11:58;1.00;99.90
18906;DHT22;9585;51.018;4.282;2023-01-20T09:14:27;1.00;99.90
18906;DHT22;9585;51.018;4.282;2023-01-20T09:16:54;1.10;99.90
18906;DHT22;9585;51.018;4.282;2023-01-20T09:19:21;1.10;99.90
18906;DHT22;9585;51.018;4.282;2023-01-20T09:21:49;1.20;99.90
18906;DHT22;9585;51.018;4.282;2023-01-20T09:24:16;1.30;99.90
18906;DHT22;9585;51.018;4.282;2023-01-20T09:26:43;1.20;99.90
18906;DHT22;9585;51.018;4.282;2023-01-20T09:29:12;1.30;99.90
18906;DHT22;9585;51.018;4.282;2023-01-20T09:31:43;1.30;99.90
18906;DHT22;9585;51.018;4.282;2023-01-20T09:34:10;1.40;99.90
18906;DHT22;9585;51.018;4.282;2023-01-20T09:36:39;1.40;99.90
18906;DHT22;9585;51.018;4.282;2023-01-20T09:39:07;1.50;99.90
18906;DHT22;9585;51.018;4.282;2023-01-20T09:41:52;1.50;99.90
18906;DHT22;9585;51.018;4.282;2023-01-20T09:44:47;1.50;99.90
18906;DHT22;9585;51.018;4.282;2023-01-20T09:47:26;1.50;99.90
18906;DHT22;9585;51.018;4.282;2023-01-20T09:50:05;1.50;99.90
18906;DHT22;9585;51.018;4.282;2023-01-20T09:53:04;1.60;99.90
18906;DHT22;9585;51.018;4.282;2023-01-20T09:55:41;1.60;99.90
18906;DHT22;9585;51.018;4.282;2023-01-20T09:58:19;1.60;99.90
18906;DHT22;9585;51.018;4.282;2023-01-20T10:00:50;1.80;99.90
18906;DHT22;9585;51.018;4.282;2023-01-20T10:03:26;1.90;99.90
18906;DHT22;9585;51.018;4.282;2023-01-20T10:06:06;2.10;99.90
18906;DHT22;9585;51.018;4.282;2023-01-20T10:08:43;2.20;99.90
18906;DHT22;9585;51.018;4.282;2023-01-20T10:11:14;2.30;99.90
18906;DHT22;9585;51.018;4.282;2023-01-20T10:13:47;2.60;99.90
18906;DHT22;9585;51.018;4.282;2023-01-20T10:16:22;3.00;99.90
18906;DHT22;9585;51.018;4.282;2023-01-20T10:18:55;3.10;99.90
18906;DHT22;9585;51.018;4.282;2023-01-20T10:21:30;3.20;99.90
18906;DHT22;9585;51.018;4.282;2023-01-20T10:24:02;3.20;99.90
18906;DHT22;9585;51.018;4.282;2023-01-20T10:26:34;3.10;99.90
18906;DHT22;9585;51.018;4.282;2023-01-20T10:29:07;3.00;99.90
18906;DHT22;9585;51.018;4.282;2023-01-20T10:31:39;2.90;99.90
18906;DHT22;9585;51.018;4.282;2023-01-20T10:34:13;2.90;99.90
18906;DHT22;9585;51.018;4.282;2023-01-20T10:36:45;2.80;99.90
18906;DHT22;9585;51.018;4.282;2023-01-20T10:39:25;2.80;99.90
18906;DHT22;9585;51.018;4.282;2023-01-20T10:42:00;2.80;99.90
18906;DHT22;9585;51.018;4.282;2023-01-20T10:44:32;2.70;99.90
18906;DHT22;9585;51.018;4.282;2023-01-20T10:47:14;2.70;99.90
18906;DHT22;9585;51.018;4.282;2023-01-20T10:52:49;2.70;99.90
18906;DHT22;9585;51.018;4.282;2023-01-20T10:55:26;2.80;99.90
18906;DHT22;9585;51.018;4.282;2023-01-20T10:57:59;2.90;99.90
18906;DHT22;9585;51.018;4.282;2023-01-20T11:00:29;3.00;99.90
18906;DHT22;9585;51.018;4.282;2023-01-20T11:03:00;3.30;99.90
18906;DHT22;9585;51.018;4.282;2023-01-20T11:05:31;3.40;99.90
18906;DHT22;9585;51.018;4.282;2023-01-20T11:08:09;3.60;99.90
18906;DHT22;9585;51.018;4.282;2023-01-20T11:10:40;3.80;99.90
18906;DHT22;9585;51.018;4.282;2023-01-20T11:13:09;4.20;99.90
18906;DHT22;9585;51.018;4.282;2023-01-20T11:15:40;4.40;99.90
18906;DHT22;9585;51.018;4.282;2023-01-20T11:18:25;4.70;99.90
18906;DHT22;9585;51.018;4.282;2023-01-20T11:20:57;5.00;99.90
18906;DHT22;9585;51.018;4.282;2023-01-20T11:23:35;5.20;99.90
18906;DHT22;9585;51.018;4.282;2023-01-20T11:26:04;5.20;99.90
18906;DHT22;9585;51.018;4.282;2023-01-20T11:28:49;5.10;99.90
18906;DHT22;9585;51.018;4.282;2023-01-20T11:31:18;5.00;99.90
18906;DHT22;9585;51.018;4.282;2023-01-20T11:33:57;4.90;99.90
18906;DHT22;9585;51.018;4.282;2023-01-20T11:36:27;4.70;99.90
18906;DHT22;9585;51.018;4.282;2023-01-20T11:38:56;4.50;99.90
18906;DHT22;9585;51.018;4.282;2023-01-20T11:41:25;4.40;99.90
18906;DHT22;9585;51.018;4.282;2023-01-20T11:43:53;4.40;99.90
18906;DHT22;9585;51.018;4.282;2023-01-20T11:46:29;4.60;99.90
18906;DHT22;9585;51.018;4.282;2023-01-20T11:49:15;4.80;99.90
18906;DHT22;9585;51.018;4.282;2023-01-20T11:51:50;5.10;99.90
18906;DHT22;9585;51.018;4.282;2023-01-20T11:54:19;5.10;99.90
18906;DHT22;9585;51.018;4.282;2023-01-20T11:56:51;5.30;99.90
18906;DHT22;9585;51.018;4.282;2023-01-20T11:59:23;5.20;99.90
18906;DHT22;9585;51.018;4.282;2023-01-20T12:01:55;5.10;99.90
18906;DHT22;9585;51.018;4.282;2023-01-20T12:04:45;5.10;99.90
18906;DHT22;9585;51.018;4.282;2023-01-20T12:07:19;5.00;99.90
18906;DHT22;9585;51.018;4.282;2023-01-20T12:09:51;5.00;99.90
18906;DHT22;9585;51.018;4.282;2023-01-20T12:12:26;5.00;99.90
18906;DHT22;9585;51.018;4.282;2023-01-20T12:15:01;5.00;99.90
18906;DHT22;9585;51.018;4.282;2023-01-20T12:17:40;4.80;99.90
18906;DHT22;9585;51.018;4.282;2023-01-20T12:20:14;4.90;99.90
18906;DHT22;9585;51.018;4.282;2023-01-20T12:22:52;4.90;99.90
18906;DHT22;9585;51.018;4.282;2023-01-20T12:25:22;4.90;99.90
18906;DHT22;9585;51.018;4.282;2023-01-20T12:27:53;4.70;99.90
18906;DHT22;9585;51.018;4.282;2023-01-20T12:30:36;4.60;99.90
18906;DHT22;9585;51.018;4.282;2023-01-20T12:33:04;4.50;99.90
18906;DHT22;9585;51.018;4.282;2023-01-20T12:35:43;4.50;99.90
18906;DHT22;9585;51.018;4.282;2023-01-20T12:38:17;4.50;99.90
18906;DHT22;9585;51.018;4.282;2023-01-20T12:40:47;4.50;99.90
18906;DHT22;9585;51.018;4.282;2023-01-20T12:43:30;4.60;99.90
18906;DHT22;9585;51.018;4.282;2023-01-20T12:46:10;4.70;99.90
18906;DHT22;9585;51.018;4.282;2023-01-20T12:48:43;4.70;99.90
18906;DHT22;9585;51.018;4.282;2023-01-20T12:51:30;5.00;99.90
18906;DHT22;9585;51.018;4.282;2023-01-20T12:54:18;4.90;99.90
18906;DHT22;9585;51.018;4.282;2023-01-20T12:56:58;4.70;99.90
18906;DHT22;9585;51.018;4.282;2023-01-20T12:59:36;4.50;99.90
18906;DHT22;9585;51.018;4.282;2023-01-20T13:05:38;4.50;99.90
18906;DHT22;9585;51.018;4.282;2023-01-20T13:08:17;4.60;99.90
18906;DHT22;9585;51.018;4.282;2023-01-20T13:11:06;4.60;99.90
18906;DHT22;9585;51.018;4.282;2023-01-20T13:13:39;4.60;99.90
18906;DHT22;9585;51.018;4.282;2023-01-20T13:16:14;4.70;99.90
18906;DHT22;9585;51.018;4.282;2023-01-20T13:18:54;4.90;99.90
18906;DHT22;9585;51.018;4.282;2023-01-20T13:21:29;5.00;99.90
18906;DHT22;9585;51.018;4.282;2023-01-20T13:23:58;5.10;99.90
18906;DHT22;9585;51.018;4.282;2023-01-20T13:26:30;5.10;99.90
18906;DHT22;9585;51.018;4.282;2023-01-20T13:28:58;5.10;99.90
18906;DHT22;9585;51.018;4.282;2023-01-20T13:31:41;5.20;99.90
18906;DHT22;9585;51.018;4.282;2023-01-20T13:34:39;5.30;99.90
18906;DHT22;9585;51.018;4.282;2023-01-20T13:37:24;5.40;99.90
18906;DHT22;9585;51.018;4.282;2023-01-20T13:39:53;5.50;99.90
18906;DHT22;9585;51.018;4.282;2023-01-20T13:42:47;5.50;99.90
18906;DHT22;9585;51.018;4.282;2023-01-20T13:45:17;5.60;99.90
18906;DHT22;9585;51.018;4.282;2023-01-20T13:47:59;5.70;99.90
18906;DHT22;9585;51.018;4.282;2023-01-20T13:50:34;5.60;99.90
18906;DHT22;9585;51.018;4.282;2023-01-20T13:53:27;5.40;99.90
18906;DHT22;9585;51.018;4.282;2023-01-20T13:55:56;5.00;99.90
18906;DHT22;9585;51.018;4.282;2023-01-20T13:58:29;4.90;99.90
18906;DHT22;9585;51.018;4.282;2023-01-20T14:00:58;4.80;99.90
18906;DHT22;9585;51.018;4.282;2023-01-20T14:03:28;4.70;99.90
18906;DHT22;9585;51.018;4.282;2023-01-20T14:05:58;4.70;99.90
18906;DHT22;9585;51.018;4.282;2023-01-20T14:08:27;4.70;99.90
18906;DHT22;9585;51.018;4.282;2023-01-20T14:11:09;4.60;99.90
18906;DHT22;9585;51.018;4.282;2023-01-20T14:13:39;4.50;99.90
18906;DHT22;9585;51.018;4.282;2023-01-20T14:16:17;4.60;99.90
18906;DHT22;9585;51.018;4.282;2023-01-20T14:18:45;4.70;99.90
18906;DHT22;9585;51.018;4.282;2023-01-20T14:21:17;4.60;99.90
18906;DHT22;9585;51.018;4.282;2023-01-20T14:23:46;4.60;99.90
18906;DHT22;9585;51.018;4.282;2023-01-20T14:26:19;4.60;99.90
18906;DHT22;9585;51.018;4.282;2023-01-20T14:28:50;4.60;99.90
18906;DHT22;9585;51.018;4.282;2023-01-20T14:31:20;4.70;99.90
18906;DHT22;9585;51.018;4.282;2023-01-20T14:33:54;4.80;99.90
18906;DHT22;9585;51.018;4.282;2023-01-20T14:36:23;4.90;99.90
18906;DHT22;9585;51.018;4.282;2023-01-20T14:38:53;4.90;99.90
18906;DHT22;9585;51.018;4.282;2023-01-20T14:41:33;4.90;99.90
18906;DHT22;9585;51.018;4.282;2023-01-20T14:44:14;4.90;99.90
18906;DHT22;9585;51.018;4.282;2023-01-20T14:46:42;4.90;99.90
18906;DHT22;9585;51.018;4.282;2023-01-20T14:49:13;4.80;99.90
18906;DHT22;9585;51.018;4.282;2023-01-20T14:51:42;4.90;99.90
18906;DHT22;9585;51.018;4.282;2023-01-20T14:54:33;4.80;99.90
18906;DHT22;9585;51.018;4.282;2023-01-20T14:57:15;4.80;99.90
18906;DHT22;9585;51.018;4.282;2023-01-20T14:59:45;4.70;99.90
18906;DHT22;9585;51.018;4.282;2023-01-20T15:02:19;4.60;99.90
18906;DHT22;9585;51.018;4.282;2023-01-20T15:04:51;4.50;99.90
18906;DHT22;9585;51.018;4.282;2023-01-20T15:07:26;4.50;99.90
18906;DHT22;9585;51.018;4.282;2023-01-20T15:09:55;4.30;99.90
18906;DHT22;9585;51.018;4.282;2023-01-20T15:12:51;4.20;99.90
18906;DHT22;9585;51.018;4.282;2023-01-20T15:15:26;4.20;99.90
18906;DHT22;9585;51.018;4.282;2023-01-20T15:18:04;4.10;99.90
18906;DHT22;9585;51.018;4.282;2023-01-20T15:20:33;4.00;99.90
18906;DHT22;9585;51.018;4.282;2023-01-20T15:23:00;4.00;99.90
18906;DHT22;9585;51.018;4.282;2023-01-20T15:25:28;3.90;99.90
18906;DHT22;9585;51.018;4.282;2023-01-20T15:27:56;4.00;99.90
18906;DHT22;9585;51.018;4.282;2023-01-20T15:30:25;4.00;99.90
18906;DHT22;9585;51.018;4.282;2023-01-20T15:32:54;3.80;99.90
18906;DHT22;9585;51.018;4.282;2023-01-20T15:35:23;3.60;99.90
18906;DHT22;9585;51.018;4.282;2023-01-20T15:37:52;3.60;99.90
18906;DHT22;9585;51.018;4.282;2023-01-20T15:40:21;3.70;99.90
18906;DHT22;9585;51.018;4.282;2023-01-20T15:42:49;3.70;99.90
18906;DHT22;9585;51.018;4.282;2023-01-20T15:45:18;3.70;99.90
18906;DHT22;9585;51.018;4.282;2023-01-20T15:47:47;3.80;99.90
18906;DHT22;9585;51.018;4.282;2023-01-20T15:50:19;3.90;99.90
18906;DHT22;9585;51.018;4.282;2023-01-20T15:52:48;3.90;99.90
18906;DHT22;9585;51.018;4.282;2023-01-20T15:55:17;3.90;99.90
18906;DHT22;9585;51.018;4.282;2023-01-20T15:57:48;3.90;99.90
18906;DHT22;9585;51.018;4.282;2023-01-20T16:00:18;3.80;99.90
18906;DHT22;9585;51.018;4.282;2023-01-20T16:02:47;3.70;99.90
18906;DHT22;9585;51.018;4.282;2023-01-20T16:05:15;3.70;99.90
18906;DHT22;9585;51.018;4.282;2023-01-20T16:07:43;3.70;99.90
18906;DHT22;9585;51.018;4.282;2023-01-20T16:10:17;3.70;99.90
18906;DHT22;9585;51.018;4.282;2023-01-20T16:12:44;3.70;99.90
18906;DHT22;9585;51.018;4.282;2023-01-20T16:15:13;3.70;99.90
18906;DHT22;9585;51.018;4.282;2023-01-20T16:17:41;3.70;99.90
18906;DHT22;9585;51.018;4.282;2023-01-20T16:20:17;3.50;99.90
18906;DHT22;9585;51.018;4.282;2023-01-20T16:22:46;3.40;99.90
18906;DHT22;9585;51.018;4.282;2023-01-20T16:25:14;3.30;99.90
18906;DHT22;9585;51.018;4.282;2023-01-20T16:27:42;3.30;99.90
18906;DHT22;9585;51.018;4.282;2023-01-20T16:30:14;3.30;99.90
18906;DHT22;9585;51.018;4.282;2023-01-20T16:32:42;3.30;99.90
18906;DHT22;9585;51.018;4.282;2023-01-20T16:35:11;3.30;99.90
18906;DHT22;9585;51.018;4.282;2023-01-20T16:37:40;3.30;99.90
18906;DHT22;9585;51.018;4.282;2023-01-20T16:40:11;3.30;99.90